createdAt,value
2023-01-27T00:00:40.133Z,2.90
2023-01-27T00:03:15.581Z,2.92
2023-01-27T00:05:45.946Z,2.93
2023-01-27T00:08:16.451Z,2.92
2023-01-27T00:10:46.856Z,2.90
2023-01-27T00:13:27.676Z,2.93
2023-01-27T00:15:58.447Z,2.90
2023-01-27T00:18:31.202Z,2.92
2023-01-27T00:21:13.982Z,2.87
2023-01-27T00:23:56.586Z,2.86
2023-01-27T00:26:26.982Z,2.84
2023-01-27T00:28:57.198Z,2.84
2023-01-27T00:31:46.203Z,2.85
2023-01-27T00:34:19.021Z,2.89
2023-01-27T00:36:49.339Z,2.85
2023-01-27T00:39:19.589Z,2.81
2023-01-27T00:41:49.862Z,2.80
2023-01-27T00:44:20.315Z,2.81
2023-01-27T00:46:50.554Z,2.77
2023-01-27T00:49:24.325Z,2.73
2023-01-27T00:51:55.163Z,2.70
2023-01-27T00:54:25.682Z,2.67
2023-01-27T00:56:55.907Z,2.63
2023-01-27T00:59:28.665Z,2.57
2023-01-27T01:01:59.061Z,2.49
2023-01-27T01:04:32.112Z,2.40
2023-01-27T01:07:02.296Z,2.34
2023-01-27T01:09:33.015Z,2.30
2023-01-27T01:12:03.355Z,2.30
2023-01-27T01:14:33.724Z,2.31
2023-01-27T01:17:03.988Z,2.31
2023-01-27T01:19:37.162Z,2.39
2023-01-27T01:22:07.339Z,2.41
2023-01-27T01:24:37.806Z,2.45
2023-01-27T01:27:08.026Z,2.48
2023-01-27T01:29:38.547Z,2.50
2023-01-27T01:32:10.032Z,2.50
2023-01-27T01:34:43.042Z,2.48
2023-01-27T01:37:13.742Z,2.48
2023-01-27T01:39:44.246Z,2.53
2023-01-27T01:42:14.393Z,2.56
2023-01-27T01:44:47.357Z,2.60
2023-01-27T01:47:19.450Z,2.64
2023-01-27T01:49:52.697Z,2.68
2023-01-27T01:52:24.297Z,2.66
2023-01-27T01:54:59.215Z,2.65
2023-01-27T01:57:34.671Z,2.65
2023-01-27T02:00:09.706Z,2.68
2023-01-27T02:02:42.055Z,2.67
2023-01-27T02:05:21.702Z,2.67
2023-01-27T02:07:58.453Z,2.66
2023-01-27T02:10:29.114Z,2.68
2023-01-27T02:12:59.308Z,2.69
2023-01-27T02:15:29.949Z,2.70
2023-01-27T02:18:01.958Z,2.63
2023-01-27T02:20:43.912Z,2.78
2023-01-27T02:23:27.297Z,2.83
2023-01-27T02:26:05.273Z,2.78
2023-01-27T02:28:35.780Z,2.81
2023-01-27T02:31:06.444Z,2.82
2023-01-27T02:33:36.874Z,2.83
2023-01-27T02:36:12.274Z,2.83
2023-01-27T02:38:46.880Z,2.83
2023-01-27T02:41:27.632Z,2.82
2023-01-27T02:44:00.875Z,2.73
2023-01-27T02:46:31.410Z,2.70
2023-01-27T02:49:01.869Z,2.69
2023-01-27T02:51:32.377Z,2.69
2023-01-27T02:54:02.490Z,2.69
2023-01-27T02:56:35.681Z,2.61
2023-01-27T02:59:06.249Z,2.60
2023-01-27T03:01:36.693Z,2.59
2023-01-27T03:04:08.800Z,2.55
2023-01-27T03:06:39.077Z,2.57
2023-01-27T03:09:10.749Z,2.56
2023-01-27T03:11:56.235Z,2.56
2023-01-27T03:14:38.990Z,2.58
2023-01-27T03:17:21.662Z,2.61
2023-01-27T03:19:53.431Z,2.62
2023-01-27T03:22:23.786Z,2.66
2023-01-27T03:24:53.990Z,2.70
2023-01-27T03:27:26.971Z,2.72
2023-01-27T03:30:00.421Z,2.73
2023-01-27T03:32:32.902Z,2.74
2023-01-27T03:35:04.071Z,2.73
2023-01-27T03:37:47.560Z,2.73
2023-01-27T03:40:30.787Z,2.68
2023-01-27T03:43:16.850Z,2.66
2023-01-27T03:46:03.745Z,2.63
2023-01-27T03:48:34.462Z,2.54
2023-01-27T03:51:07.138Z,2.53
2023-01-27T03:53:38.047Z,2.48
2023-01-27T03:56:09.351Z,2.47
2023-01-27T03:58:43.021Z,2.45
2023-01-27T04:01:17.738Z,2.51
2023-01-27T04:04:01.397Z,2.51
2023-01-27T04:06:45.929Z,2.50
2023-01-27T04:09:22.073Z,2.48
2023-01-27T04:11:56.128Z,2.51
2023-01-27T04:14:31.023Z,2.48
2023-01-27T04:17:02.783Z,2.49
2023-01-27T04:19:33.982Z,2.50
2023-01-27T04:22:04.832Z,2.52
2023-01-27T04:24:35.339Z,2.47
2023-01-27T04:27:07.131Z,2.47
2023-01-27T04:29:42.319Z,2.48
2023-01-27T04:32:13.911Z,2.42
2023-01-27T04:34:44.945Z,2.42
2023-01-27T04:37:15.222Z,2.47
2023-01-27T04:39:47.547Z,2.46
2023-01-27T04:42:17.783Z,2.45
2023-01-27T04:44:50.682Z,2.48
2023-01-27T04:47:20.924Z,2.41
2023-01-27T04:49:54.045Z,2.48
2023-01-27T04:52:24.456Z,2.46
2023-01-27T04:54:54.693Z,2.42
2023-01-27T04:57:25.854Z,2.39
2023-01-27T04:59:58.866Z,2.43
2023-01-27T05:02:29.063Z,2.50
2023-01-27T05:04:59.398Z,2.50
2023-01-27T05:07:31.311Z,2.56
2023-01-27T05:10:02.777Z,2.57
2023-01-27T05:12:33.293Z,2.56
2023-01-27T05:15:06.310Z,2.53
2023-01-27T05:17:37.093Z,2.48
2023-01-27T05:20:09.574Z,2.58
2023-01-27T05:22:43.296Z,2.51
2023-01-27T05:25:14.136Z,2.56
2023-01-27T05:27:44.532Z,2.26
2023-01-27T05:30:17.889Z,2.58
2023-01-27T05:32:49.700Z,2.57
2023-01-27T05:35:20.264Z,2.52
2023-01-27T05:37:50.531Z,2.51
2023-01-27T05:40:21.438Z,2.52
2023-01-27T05:42:54.044Z,2.52
2023-01-27T05:45:27.201Z,2.52
2023-01-27T05:47:57.624Z,2.50
2023-01-27T05:50:28.069Z,2.40
2023-01-27T05:52:58.294Z,2.47
2023-01-27T05:55:28.804Z,2.47
2023-01-27T05:57:59.045Z,2.55
2023-01-27T06:00:31.954Z,2.57
2023-01-27T06:03:02.170Z,2.45
2023-01-27T06:05:32.597Z,2.50
2023-01-27T06:08:02.770Z,2.47
2023-01-27T06:10:37.445Z,2.38
2023-01-27T06:13:07.668Z,2.36
2023-01-27T06:15:43.635Z,2.48
2023-01-27T06:18:14.303Z,2.44
2023-01-27T06:20:45.116Z,2.45
2023-01-27T06:23:17.419Z,2.50
2023-01-27T06:25:49.405Z,2.53
2023-01-27T06:28:28.573Z,2.56
2023-01-27T06:31:08.688Z,2.60
2023-01-27T06:33:39.000Z,2.59
2023-01-27T06:36:12.703Z,2.56
2023-01-27T06:38:43.830Z,2.59
2023-01-27T06:41:14.216Z,2.56
2023-01-27T06:43:44.468Z,2.60
2023-01-27T06:46:18.250Z,2.60
2023-01-27T06:48:48.478Z,2.66
2023-01-27T06:51:19.013Z,2.59
2023-01-27T06:53:49.296Z,2.62
2023-01-27T06:56:19.590Z,2.62
2023-01-27T06:58:49.870Z,2.61
2023-01-27T07:01:23.202Z,2.64
2023-01-27T07:03:53.544Z,2.63
2023-01-27T07:06:24.079Z,2.63
2023-01-27T07:08:54.829Z,2.64
2023-01-27T07:11:26.547Z,2.43
2023-01-27T07:13:56.692Z,2.44
2023-01-27T07:16:29.873Z,2.40
2023-01-27T07:19:00.052Z,2.58
2023-01-27T07:21:30.455Z,2.57
2023-01-27T07:24:00.741Z,2.62
2023-01-27T07:26:31.134Z,2.57
2023-01-27T07:29:04.142Z,2.63
2023-01-27T07:31:37.415Z,2.71
2023-01-27T07:34:07.625Z,2.63
2023-01-27T07:36:38.019Z,2.61
2023-01-27T07:39:08.396Z,2.63
2023-01-27T07:41:38.664Z,2.70
2023-01-27T07:44:09.377Z,2.71
2023-01-27T07:46:42.269Z,2.61
2023-01-27T07:49:12.808Z,2.55
2023-01-27T07:51:43.018Z,2.77
2023-01-27T07:54:13.606Z,2.54
2023-01-27T07:56:43.855Z,2.59
2023-01-27T07:59:14.776Z,2.71
2023-01-27T08:01:48.361Z,2.72
2023-01-27T08:04:18.796Z,2.89
2023-01-27T08:06:49.031Z,2.77
2023-01-27T08:09:19.751Z,2.93
2023-01-27T08:11:49.936Z,2.84
2023-01-27T08:14:20.278Z,2.77
2023-01-27T08:16:53.332Z,2.95
2023-01-27T08:19:24.168Z,3.11
2023-01-27T08:21:54.494Z,3.14
2023-01-27T08:24:24.850Z,3.15
2023-01-27T08:26:55.311Z,3.22
2023-01-27T08:29:25.729Z,3.16
2023-01-27T08:31:58.589Z,3.32
2023-01-27T08:34:29.247Z,3.26
2023-01-27T08:36:59.461Z,3.29
2023-01-27T08:39:33.294Z,3.31
2023-01-27T08:42:03.447Z,3.48
2023-01-27T08:44:33.826Z,3.46
2023-01-27T08:47:06.760Z,3.38
2023-01-27T08:49:37.085Z,3.60
2023-01-27T08:52:07.979Z,3.61
2023-01-27T08:54:38.311Z,3.73
2023-01-27T08:57:08.642Z,3.67
2023-01-27T08:59:38.929Z,3.62
2023-01-27T09:02:15.620Z,3.69
2023-01-27T09:04:45.882Z,3.67
2023-01-27T09:07:19.115Z,3.71
2023-01-27T09:10:04.230Z,3.80
2023-01-27T09:12:43.749Z,3.74
2023-01-27T09:15:16.009Z,3.84
2023-01-27T09:17:48.954Z,3.89
2023-01-27T09:20:22.806Z,3.83
2023-01-27T09:22:53.058Z,3.69
2023-01-27T09:25:23.646Z,3.76
2023-01-27T09:27:57.339Z,3.76
2023-01-27T09:30:29.106Z,3.75
2023-01-27T09:33:03.864Z,3.74
2023-01-27T09:35:42.521Z,3.68
2023-01-27T09:38:14.331Z,3.78
2023-01-27T09:41:01.686Z,3.68
2023-01-27T09:44:03.879Z,3.69
2023-01-27T09:46:49.415Z,3.83
2023-01-27T09:49:48.137Z,3.58
2023-01-27T09:52:48.106Z,3.68
2023-01-27T09:55:24.980Z,3.90
2023-01-27T09:58:02.608Z,3.86
2023-01-27T10:00:53.069Z,3.95
2023-01-27T10:03:49.690Z,4.04
2023-01-27T10:06:36.451Z,3.94
2023-01-27T10:09:46.121Z,3.98
2023-01-27T10:12:30.915Z,3.86
2023-01-27T10:15:13.286Z,3.70
2023-01-27T10:17:54.267Z,3.69
2023-01-27T10:20:31.679Z,3.59
2023-01-27T10:23:18.258Z,3.33
2023-01-27T10:25:59.682Z,3.34
2023-01-27T10:28:33.760Z,3.21
2023-01-27T10:31:05.367Z,3.16
2023-01-27T10:33:48.917Z,2.94
2023-01-27T10:36:28.804Z,2.65
2023-01-27T10:39:13.206Z,2.81
2023-01-27T10:41:53.872Z,2.84
2023-01-27T10:44:41.915Z,2.59
2023-01-27T10:47:19.693Z,2.74
2023-01-27T10:49:55.886Z,2.85
2023-01-27T10:52:30.235Z,2.89
2023-01-27T10:55:09.586Z,2.81
2023-01-27T10:57:43.968Z,2.80
2023-01-27T11:00:51.435Z,2.67
2023-01-27T11:03:17.640Z,2.66
2023-01-27T11:05:55.229Z,2.69
2023-01-27T11:08:29.182Z,2.78
2023-01-27T11:11:18.694Z,2.86
2023-01-27T11:13:49.188Z,2.93
2023-01-27T11:16:21.294Z,2.97
2023-01-27T11:18:59.942Z,2.92
2023-01-27T11:21:34.667Z,2.86
2023-01-27T11:24:19.281Z,2.94
2023-01-27T11:27:00.550Z,3.05
2023-01-27T11:29:39.504Z,2.90
2023-01-27T11:32:19.834Z,2.93
2023-01-27T11:35:03.015Z,2.97
2023-01-27T11:37:36.985Z,3.06
2023-01-27T11:40:16.352Z,2.95
2023-01-27T11:42:51.769Z,2.95
2023-01-27T11:45:23.968Z,2.74
2023-01-27T11:47:58.144Z,2.83
2023-01-27T11:50:33.401Z,2.88
2023-01-27T11:53:14.197Z,2.88
2023-01-27T11:55:48.880Z,2.96
2023-01-27T11:58:27.015Z,2.67
2023-01-27T12:01:01.426Z,2.95
2023-01-27T12:03:46.039Z,2.96
2023-01-27T12:06:18.804Z,3.02
2023-01-27T12:08:50.563Z,2.87
2023-01-27T12:11:24.613Z,3.11
2023-01-27T12:13:58.371Z,3.24
2023-01-27T12:16:37.353Z,3.26
2023-01-27T12:19:21.799Z,3.51
2023-01-27T12:21:55.357Z,3.71
2023-01-27T12:24:31.868Z,3.90
2023-01-27T12:27:03.359Z,4.02
2023-01-27T12:29:44.325Z,3.90
2023-01-27T12:32:20.025Z,3.73
2023-01-27T12:34:56.457Z,3.83
2023-01-27T12:37:30.756Z,3.81
2023-01-27T12:40:04.105Z,3.82
2023-01-27T12:42:41.117Z,4.17
2023-01-27T12:45:35.034Z,4.08
2023-01-27T12:48:22.965Z,4.29
2023-01-27T12:50:59.244Z,4.01
2023-01-27T12:53:30.512Z,4.08
2023-01-27T12:56:04.339Z,4.22
2023-01-27T12:58:39.059Z,4.30
2023-01-27T13:01:34.062Z,4.32
2023-01-27T13:04:09.409Z,4.33
2023-01-27T13:06:43.582Z,4.20
2023-01-27T13:09:39.360Z,4.33
2023-01-27T13:12:20.614Z,4.23
2023-01-27T13:14:56.830Z,3.74
2023-01-27T13:17:39.334Z,3.64
2023-01-27T13:20:19.277Z,3.85
2023-01-27T13:22:53.669Z,3.90
2023-01-27T13:25:30.234Z,3.83
2023-01-27T13:28:03.657Z,3.65
2023-01-27T13:30:40.653Z,3.76
2023-01-27T13:33:27.917Z,3.86
2023-01-27T13:36:04.528Z,3.91
2023-01-27T13:38:45.198Z,3.91
2023-01-27T13:41:23.099Z,3.84
2023-01-27T13:44:03.114Z,4.02
2023-01-27T13:46:36.856Z,4.20
2023-01-27T13:49:20.424Z,4.14
2023-01-27T13:51:50.802Z,3.89
2023-01-27T13:54:23.869Z,3.90
2023-01-27T13:57:07.760Z,4.00
2023-01-27T13:59:46.310Z,4.08
2023-01-27T14:02:42.252Z,4.07
2023-01-27T14:05:31.023Z,4.03
2023-01-27T14:08:16.310Z,3.96
2023-01-27T14:11:04.448Z,4.13
2023-01-27T14:13:47.536Z,4.17
2023-01-27T14:16:27.907Z,4.16
2023-01-27T14:19:03.822Z,4.12
2023-01-27T14:21:49.828Z,4.15
2023-01-27T14:24:28.127Z,4.12
2023-01-27T14:27:07.852Z,4.15
2023-01-27T14:29:45.087Z,4.07
2023-01-27T14:32:23.653Z,3.96
2023-01-27T14:35:10.048Z,3.93
2023-01-27T14:37:52.681Z,4.03
2023-01-27T14:40:27.809Z,4.06
2023-01-27T14:43:11.140Z,4.14
2023-01-27T14:45:46.440Z,4.14
2023-01-27T14:48:32.809Z,4.01
2023-01-27T14:51:12.212Z,4.08
2023-01-27T14:53:57.384Z,4.14
2023-01-27T14:56:42.568Z,4.14
2023-01-27T14:59:27.509Z,4.15
2023-01-27T15:02:05.862Z,4.13
2023-01-27T15:04:45.399Z,4.17
2023-01-27T15:07:20.897Z,4.14
2023-01-27T15:10:13.413Z,4.14
2023-01-27T15:13:11.239Z,4.05
2023-01-27T15:15:57.909Z,4.02
2023-01-27T15:18:48.356Z,3.98
2023-01-27T15:21:41.101Z,3.95
2023-01-27T15:24:31.014Z,3.96
2023-01-27T15:27:04.355Z,3.93
2023-01-27T15:29:35.842Z,3.93
2023-01-27T15:32:31.076Z,3.91
2023-01-27T15:35:31.740Z,3.96
2023-01-27T15:38:11.188Z,3.85
2023-01-27T15:41:00.135Z,3.84
2023-01-27T15:43:35.719Z,3.80
2023-01-27T15:46:26.988Z,3.80
2023-01-27T15:49:00.629Z,3.76
2023-01-27T15:51:34.435Z,3.81
2023-01-27T15:54:05.923Z,3.74
2023-01-27T15:56:48.651Z,3.87
2023-01-27T15:59:27.274Z,3.91
2023-01-27T16:02:08.450Z,3.88
2023-01-27T16:04:39.028Z,3.86
2023-01-27T16:07:25.630Z,3.91
2023-01-27T16:10:00.201Z,3.84
2023-01-27T16:12:43.759Z,3.85
2023-01-27T16:15:35.337Z,3.85
2023-01-27T16:18:27.710Z,3.81
2023-01-27T16:21:06.739Z,3.79
2023-01-27T16:23:45.407Z,3.77
2023-01-27T16:26:31.196Z,3.77
2023-01-27T16:29:33.012Z,3.83
2023-01-27T16:32:09.787Z,3.83
2023-01-27T16:34:47.110Z,3.80
2023-01-27T16:37:26.802Z,4.01
2023-01-27T16:40:02.519Z,4.14
2023-01-27T16:42:36.009Z,4.27
2023-01-27T16:45:18.480Z,4.20
2023-01-27T16:47:55.466Z,4.16
2023-01-27T16:50:37.237Z,4.39
2023-01-27T16:53:10.033Z,4.25
2023-01-27T16:55:40.593Z,4.25
2023-01-27T16:58:21.530Z,4.28
2023-01-27T17:00:53.709Z,4.30
2023-01-27T17:03:34.262Z,4.27
2023-01-27T17:06:07.420Z,4.37
2023-01-27T17:08:46.984Z,4.23
2023-01-27T17:11:26.822Z,4.12
2023-01-27T17:14:02.596Z,3.91
2023-01-27T17:16:37.262Z,4.05
2023-01-27T17:19:14.379Z,4.04
2023-01-27T17:21:48.459Z,3.95
2023-01-27T17:24:24.298Z,3.98
2023-01-27T17:27:04.576Z,3.89
2023-01-27T17:29:40.600Z,4.07
2023-01-27T17:32:23.416Z,4.19
2023-01-27T17:34:59.122Z,4.05
2023-01-27T17:37:32.594Z,3.78
2023-01-27T17:40:05.298Z,3.90
2023-01-27T17:42:37.391Z,3.95
2023-01-27T17:45:25.678Z,3.74
2023-01-27T17:47:56.525Z,3.66
2023-01-27T17:50:40.230Z,3.92
2023-01-27T17:53:14.297Z,4.07
2023-01-27T17:55:44.471Z,3.88
2023-01-27T17:58:26.121Z,3.70
2023-01-27T18:00:59.193Z,4.04
2023-01-27T18:03:34.866Z,4.04
2023-01-27T18:06:09.644Z,4.10
2023-01-27T18:08:40.484Z,4.23
2023-01-27T18:11:25.526Z,4.20
2023-01-27T18:13:57.146Z,4.20
2023-01-27T18:16:27.667Z,4.20
2023-01-27T18:19:08.599Z,4.31
2023-01-27T18:21:41.542Z,4.26
2023-01-27T18:24:23.910Z,4.18
2023-01-27T18:26:54.532Z,4.02
2023-01-27T18:29:31.174Z,4.23
2023-01-27T18:32:12.503Z,4.20
2023-01-27T18:34:52.951Z,4.16
2023-01-27T18:37:33.985Z,3.98
2023-01-27T18:40:24.687Z,3.93
2023-01-27T18:42:56.405Z,4.17
2023-01-27T18:45:27.280Z,4.22
2023-01-27T18:47:59.705Z,4.20
2023-01-27T18:50:31.501Z,3.94
2023-01-27T18:53:04.932Z,4.03
2023-01-27T18:55:35.828Z,3.91
2023-01-27T18:58:06.565Z,4.06
2023-01-27T19:00:41.077Z,3.95
2023-01-27T19:03:19.427Z,4.10
2023-01-27T19:05:51.515Z,3.99
2023-01-27T19:08:28.819Z,3.99
2023-01-27T19:10:59.282Z,4.17
2023-01-27T19:13:29.963Z,4.12
2023-01-27T19:16:01.649Z,3.95
2023-01-27T19:18:35.544Z,4.15
2023-01-27T19:21:06.652Z,3.87
2023-01-27T19:23:44.488Z,3.87
2023-01-27T19:26:20.309Z,3.87
2023-01-27T19:28:53.863Z,4.04
2023-01-27T19:31:24.933Z,4.04
2023-01-27T19:33:57.747Z,4.19
2023-01-27T19:36:32.770Z,4.24
2023-01-27T19:39:15.119Z,4.28
2023-01-27T19:41:46.853Z,4.18
2023-01-27T19:44:18.137Z,4.28
2023-01-27T19:46:48.637Z,4.21
2023-01-27T19:49:21.012Z,4.28
2023-01-27T19:51:51.642Z,4.30
2023-01-27T19:54:24.822Z,4.34
2023-01-27T19:56:55.444Z,4.30
2023-01-27T19:59:25.955Z,4.27
2023-01-27T20:01:56.926Z,4.28
2023-01-27T20:04:28.037Z,4.26
2023-01-27T20:06:58.678Z,4.26
2023-01-27T20:09:31.547Z,4.25
2023-01-27T20:12:02.029Z,4.27
2023-01-27T20:14:32.396Z,4.22
2023-01-27T20:17:02.960Z,4.26
2023-01-27T20:19:33.573Z,4.27
2023-01-27T20:22:04.223Z,4.17
2023-01-27T20:24:42.830Z,4.30
2023-01-27T20:27:13.382Z,4.33
2023-01-27T20:29:45.075Z,4.36
2023-01-27T20:32:15.639Z,4.44
2023-01-27T20:34:46.218Z,4.41
2023-01-27T20:37:17.572Z,4.40
2023-01-27T20:39:51.029Z,4.36
2023-01-27T20:42:22.648Z,4.36
2023-01-27T20:44:54.269Z,4.37
2023-01-27T20:47:24.871Z,4.42
2023-01-27T20:49:55.236Z,4.39
2023-01-27T20:52:26.626Z,4.25
2023-01-27T20:54:59.781Z,4.29
2023-01-27T20:57:33.870Z,4.41
2023-01-27T21:00:04.995Z,4.44
2023-01-27T21:02:35.684Z,4.42
2023-01-27T21:05:06.187Z,4.45
2023-01-27T21:07:38.936Z,4.45
2023-01-27T21:10:13.586Z,4.42
2023-01-27T21:12:46.173Z,4.39
2023-01-27T21:15:16.833Z,4.30
2023-01-27T21:17:47.651Z,4.40
2023-01-27T21:20:18.147Z,4.47
2023-01-27T21:22:49.677Z,4.43
2023-01-27T21:25:22.669Z,4.37
2023-01-27T21:27:53.079Z,4.37
2023-01-27T21:30:25.765Z,4.38
2023-01-27T21:32:56.076Z,4.35
2023-01-27T21:35:26.655Z,4.28
2023-01-27T21:37:57.297Z,4.40
2023-01-27T21:40:30.881Z,3.96
2023-01-27T21:43:13.631Z,4.43
2023-01-27T21:45:43.893Z,4.40
2023-01-27T21:48:15.246Z,4.29
2023-01-27T21:50:48.373Z,4.27
2023-01-27T21:53:18.666Z,4.04
2023-01-27T21:55:51.745Z,4.36
2023-01-27T21:58:22.238Z,4.51
2023-01-27T22:00:52.600Z,4.41
2023-01-27T22:03:24.141Z,4.43
2023-01-27T22:05:54.485Z,4.41
2023-01-27T22:08:25.083Z,4.47
2023-01-27T22:10:57.880Z,4.30
2023-01-27T22:13:29.451Z,4.49
2023-01-27T22:15:59.599Z,4.54
2023-01-27T22:18:30.081Z,4.47
2023-01-27T22:21:03.786Z,4.44
2023-01-27T22:23:34.003Z,4.40
2023-01-27T22:26:10.189Z,4.44
2023-01-27T22:28:40.414Z,4.47
2023-01-27T22:31:10.791Z,4.43
2023-01-27T22:33:41.065Z,4.40
2023-01-27T22:36:12.895Z,4.41
2023-01-27T22:38:43.259Z,4.44
2023-01-27T22:41:16.213Z,4.33
2023-01-27T22:43:46.702Z,4.40
2023-01-27T22:46:16.899Z,4.39
2023-01-27T22:48:50.131Z,4.36
2023-01-27T22:51:20.696Z,4.43
2023-01-27T22:53:50.937Z,4.42
2023-01-27T22:56:23.968Z,4.47
2023-01-27T22:58:54.402Z,4.45
2023-01-27T23:01:25.220Z,4.49
2023-01-27T23:03:55.610Z,4.47
2023-01-27T23:06:25.893Z,4.44
2023-01-27T23:08:56.021Z,4.40
2023-01-27T23:11:29.125Z,4.35
2023-01-27T23:13:59.283Z,4.34
2023-01-27T23:16:29.856Z,4.36
2023-01-27T23:19:00.054Z,4.37
2023-01-27T23:21:31.666Z,4.37
2023-01-27T23:24:01.960Z,4.42
2023-01-27T23:26:34.979Z,4.42
2023-01-27T23:29:10.804Z,4.40
2023-01-27T23:31:50.361Z,4.44
2023-01-27T23:34:20.968Z,4.43
2023-01-27T23:36:51.408Z,4.40
2023-01-27T23:39:21.550Z,4.40
2023-01-27T23:41:54.659Z,4.38
2023-01-27T23:44:24.813Z,4.39
2023-01-27T23:46:55.044Z,4.38
2023-01-27T23:49:25.561Z,4.40
2023-01-27T23:51:55.826Z,4.37
2023-01-27T23:54:26.191Z,4.38
2023-01-27T23:56:59.179Z,4.39
2023-01-27T23:59:29.450Z,4.34
